Time;durP1;ratioP1;P1;durP2;ratioP2;P2;SDS_P1;SDS_P2;PMS_P1;PMS_P2;Temp;Humidity;BMP_temperature;BMP_pressure;BME280_temperature;BME280_humidity;BME280_pressure;Samples;Min_cycle;Max_cycle;Signal;HPM_P1;HPM_P2
2023/03/18 00:00:31;;;;;;;19.15;11.45;;;;;;;9.07;59.25;101546.06;4956721;28;20053;-78
2023/03/18 00:03:08;;;;;;;18.67;12.20;;;;;;;8.72;59.56;101518.34;4947785;28;20054;-79
2023/03/18 00:05:44;;;;;;;17.98;11.82;;;;;;;8.74;59.67;101532.34;4955409;28;20055;-77
2023/03/18 00:08:18;;;;;;;16.02;12.00;;;;;;;8.69;59.69;101525.63;4961954;28;20255;-78
2023/03/18 00:10:52;;;;;;;15.32;11.20;;;;;;;8.12;60.11;101450.81;4969733;28;20425;-79
2023/03/18 00:13:26;;;;;;;14.02;10.63;;;;;;;8.76;60.02;101541.03;4954698;28;20159;-80
2023/03/18 00:16:06;;;;;;;22.85;12.38;;;;;;;8.99;60.25;101546.59;4961084;28;20148;-80
2023/03/18 00:18:40;;;;;;;28.33;12.93;;;;;;;9.03;59.65;101537.50;4926871;28;20438;-80
2023/03/18 00:21:19;;;;;;;18.00;10.43;;;;;;;9.02;59.63;101525.19;4941399;28;20054;-80
2023/03/18 00:23:57;;;;;;;21.10;12.20;;;;;;;9.03;59.57;101526.91;4918601;28;20258;-79
2023/03/18 00:26:46;;;;;;;33.10;11.70;;;;;;;8.92;59.31;101473.81;4944892;28;20082;-78
2023/03/18 00:29:18;;;;;;;57.35;16.05;;;;;;;8.80;59.05;101450.81;4941324;28;20268;-79
2023/03/18 00:31:46;;;;;;;27.83;12.63;;;;;;;9.23;58.92;101530.00;4932816;28;20090;-81
2023/03/18 00:34:16;;;;;;;33.10;12.73;;;;;;;8.81;59.23;101478.97;4942127;28;20051;-80
2023/03/18 00:36:55;;;;;;;24.13;12.13;;;;;;;8.97;59.40;101519.34;4927972;28;20539;-80
2023/03/18 00:39:31;;;;;;;27.35;11.98;;;;;;;8.91;59.33;101523.28;4934602;28;20110;-80
2023/03/18 00:42:13;;;;;;;30.30;12.43;;;;;;;8.80;59.56;101524.94;4935555;28;20077;-78
2023/03/18 00:44:47;;;;;;;24.30;12.68;;;;;;;8.26;59.81;101449.91;4931687;28;20191;-80
2023/03/18 00:47:18;;;;;;;31.45;12.68;;;;;;;8.66;60.04;101510.81;4913055;28;20364;-80
2023/03/18 00:49:44;;;;;;;21.75;12.70;;;;;;;8.47;60.25;101497.97;4926407;28;20464;-80
2023/03/18 00:52:26;;;;;;;29.70;13.23;;;;;;;8.49;60.82;101511.06;4930929;28;20046;-80
2023/03/18 00:55:00;;;;;;;40.35;13.35;;;;;;;8.37;60.47;101498.63;4915674;28;20244;-80
2023/03/18 00:57:34;;;;;;;31.30;13.00;;;;;;;8.22;60.80;101488.09;4942282;28;20231;-77
2023/03/18 01:00:08;;;;;;;37.75;14.40;;;;;;;8.27;61.51;101501.84;4958707;28;20082;-78
2023/03/18 01:02:43;;;;;;;35.97;13.38;;;;;;;8.20;61.71;101500.56;4962972;28;20050;-78
2023/03/18 01:05:18;;;;;;;28.67;11.68;;;;;;;8.35;61.61;101504.03;4946751;28;20283;-79
2023/03/18 01:07:46;;;;;;;27.15;11.77;;;;;;;8.31;61.92;101486.66;4961404;28;20058;-81
2023/03/18 01:10:15;;;;;;;30.05;14.00;;;;;;;8.55;61.48;101514.19;4935388;28;20058;-79
2023/03/18 01:12:47;;;;;;;32.25;12.50;;;;;;;8.61;61.42;101507.63;4947266;28;20050;-79
2023/03/18 01:15:18;;;;;;;38.72;13.25;;;;;;;8.61;61.25;101502.31;4960408;28;20174;-80
2023/03/18 01:17:53;;;;;;;24.42;13.02;;;;;;;8.59;61.15;101504.22;4937110;28;20103;-79
2023/03/18 01:20:20;;;;;;;29.30;12.60;;;;;;;8.63;61.31;101507.53;4930195;28;20512;-80
2023/03/18 01:22:46;;;;;;;23.27;12.35;;;;;;;8.54;61.78;101498.38;4934996;28;20641;-80
2023/03/18 01:25:17;;;;;;;22.10;12.20;;;;;;;8.55;62.11;101500.94;4949669;28;20057;-80
2023/03/18 01:27:51;;;;;;;23.83;11.85;;;;;;;7.99;62.14;101409.41;4945396;28;20046;-78
2023/03/18 01:30:24;;;;;;;18.98;11.88;;;;;;;8.51;61.77;101494.16;4955952;28;20050;-80
2023/03/18 01:32:54;;;;;;;26.52;12.63;;;;;;;8.44;62.11;101482.28;4963402;28;20136;-80
2023/03/18 01:35:22;;;;;;;27.50;13.23;;;;;;;7.87;62.22;101398.69;4930054;28;20488;-80
2023/03/18 01:38:05;;;;;;;23.58;12.13;;;;;;;8.07;62.08;101415.03;4940253;28;20050;-79
2023/03/18 01:40:41;;;;;;;22.25;12.07;;;;;;;8.26;61.87;101454.38;4946317;28;20140;-78
2023/03/18 01:43:19;;;;;;;26.20;11.18;;;;;;;8.30;61.95;101469.94;4948839;28;20062;-78
2023/03/18 01:46:00;;;;;;;17.85;10.85;;;;;;;8.29;62.30;101481.44;4922745;28;20747;-79
2023/03/18 01:48:38;;;;;;;16.47;10.47;;;;;;;8.13;62.40;101451.66;4922030;28;20498;-79
2023/03/18 01:51:10;;;;;;;25.40;10.68;;;;;;;8.01;61.91;101436.56;4936941;28;20567;-80
2023/03/18 01:53:43;;;;;;;21.38;10.85;;;;;;;8.10;62.30;101454.50;4913926;28;20568;-80
2023/03/18 01:56:10;;;;;;;18.88;10.13;;;;;;;8.15;62.32;101462.97;4942704;28;20134;-78
2023/03/18 01:58:44;;;;;;;20.85;11.13;;;;;;;7.35;62.23;101338.59;4925647;28;20345;-79
2023/03/18 02:01:39;;;;;;;14.82;9.90;;;;;;;7.98;62.28;101457.94;4937562;28;20539;-78
2023/03/18 02:04:18;;;;;;;16.98;10.40;;;;;;;7.88;62.08;101440.00;4967121;28;20186;-78
2023/03/18 02:07:04;;;;;;;18.35;9.02;;;;;;;8.08;62.33;101470.50;4961677;28;20299;-78
2023/03/18 02:09:30;;;;;;;18.00;9.18;;;;;;;8.14;61.96;101466.59;4945831;28;20496;-79
2023/03/18 02:12:05;;;;;;;37.00;23.13;;;;;;;8.14;62.59;101472.72;4955339;28;20054;-79
2023/03/18 02:14:36;;;;;;;18.35;10.48;;;;;;;8.19;61.98;101459.19;4935320;28;20047;-79
2023/03/18 02:17:18;;;;;;;16.42;10.23;;;;;;;8.08;62.26;101440.53;4927664;28;20332;-80
2023/03/18 02:20:27;;;;;;;15.35;10.63;;;;;;;8.14;62.22;101448.06;4900055;28;20646;-79
2023/03/18 02:23:09;;;;;;;16.40;9.50;;;;;;;7.96;61.82;101412.22;4836339;28;20463;-80
2023/03/18 02:25:54;;;;;;;17.75;9.38;;;;;;;7.83;62.25;101389.25;4890801;28;20480;-77
2023/03/18 02:28:24;;;;;;;20.40;10.27;;;;;;;8.07;62.43;101441.47;4878810;28;20097;-78
2023/03/18 02:30:58;;;;;;;18.40;10.75;;;;;;;8.13;62.30;101436.66;4927140;28;20070;-78
2023/03/18 02:33:37;;;;;;;24.88;9.43;;;;;;;8.13;62.38;101436.66;4924835;28;20251;-79
2023/03/18 02:36:30;;;;;;;18.27;10.20;;;;;;;8.07;62.08;101437.03;4931940;28;20241;-79
2023/03/18 02:38:59;;;;;;;20.50;9.75;;;;;;;8.00;62.63;101424.31;4922258;28;20058;-80
2023/03/18 02:41:33;;;;;;;16.00;9.98;;;;;;;8.12;62.58;101455.25;4942499;28;20042;-80
2023/03/18 02:43:59;;;;;;;16.48;10.00;;;;;;;8.18;62.83;101451.34;4943990;28;20507;-79
2023/03/18 02:47:00;;;;;;;19.70;9.55;;;;;;;8.07;62.74;101437.03;4944735;28;20543;-79
2023/03/18 02:49:31;;;;;;;23.48;10.13;;;;;;;8.01;62.45;101442.75;4899378;28;20132;-79
2023/03/18 02:52:09;;;;;;;23.13;10.00;;;;;;;7.98;62.84;101442.91;4897581;28;20290;-80
2023/03/18 02:54:46;;;;;;;15.88;9.93;;;;;;;7.80;62.74;101418.53;4938424;28;20065;-79
2023/03/18 02:57:12;;;;;;;14.05;9.32;;;;;;;7.39;62.92;101363.88;4939093;28;20440;-80
2023/03/18 02:59:39;;;;;;;24.58;9.90;;;;;;;7.99;62.61;101449.91;4943455;28;20412;-78
2023/03/18 03:02:06;;;;;;;18.83;9.90;;;;;;;8.01;63.04;101455.09;4943163;28;20353;-79
2023/03/18 03:04:33;;;;;;;19.17;9.55;;;;;;;7.82;62.38;101415.78;4940150;28;20381;-78
2023/03/18 03:07:03;;;;;;;18.38;9.23;;;;;;;8.02;62.86;101447.06;4953025;28;20136;-77
2023/03/18 03:09:33;;;;;;;13.45;10.02;;;;;;;7.87;62.45;101425.13;4934353;28;20120;-79
2023/03/18 03:12:01;;;;;;;16.60;8.85;;;;;;;7.90;62.24;101451.34;4962532;28;20355;-78
2023/03/18 03:14:31;;;;;;;12.43;9.52;;;;;;;7.66;62.20;101429.97;4914927;28;20058;-79
2023/03/18 03:17:03;;;;;;;14.25;9.20;;;;;;;7.65;62.47;101430.09;4911680;28;20353;-78
2023/03/18 03:19:33;;;;;;;13.55;8.80;;;;;;;7.75;62.52;101465.56;4917882;28;20102;-79
2023/03/18 03:22:02;;;;;;;18.15;9.05;;;;;;;7.64;62.83;101460.09;4923920;28;20142;-77
2023/03/18 03:24:39;;;;;;;12.18;9.07;;;;;;;7.55;62.77;101444.81;4923190;28;20051;-81
2023/03/18 03:27:11;;;;;;;16.23;9.75;;;;;;;6.64;62.56;101316.59;4928485;28;20413;-80
2023/03/18 03:29:46;;;;;;;12.55;8.82;;;;;;;7.35;62.09;101436.31;4900116;28;20055;-81
2023/03/18 03:32:13;;;;;;;16.77;9.60;;;;;;;7.40;62.77;101436.91;4922466;28;20610;-81
2023/03/18 03:34:48;;;;;;;16.58;9.65;;;;;;;7.28;62.46;101421.78;4922137;28;20449;-80
2023/03/18 03:37:24;;;;;;;11.75;9.07;;;;;;;7.57;62.34;101466.69;4929357;28;20385;-80
2023/03/18 03:40:24;;;;;;;9.77;8.23;;;;;;;7.58;62.51;101461.31;4917339;28;20243;-81
2023/03/18 03:43:04;;;;;;;12.07;8.38;;;;;;;7.62;62.33;101456.69;4897229;28;20356;-79
2023/03/18 03:45:36;;;;;;;12.05;8.73;;;;;;;7.28;62.30;101395.38;4938095;28;20073;-80
2023/03/18 03:51:09;;;;;;;11.98;8.90;;;;;;;7.64;62.69;101465.38;4874418;28;20157;-80
2023/03/18 03:53:42;;;;;;;14.52;8.25;;;;;;;7.45;62.37;101448.03;4898484;28;20074;-80
2023/03/18 03:56:38;;;;;;;9.52;8.00;;;;;;;7.53;62.14;101459.94;4903551;29;20265;-79
2023/03/18 03:59:05;;;;;;;12.80;7.82;;;;;;;6.93;62.10;101353.53;4917288;29;20309;-80
2023/03/18 04:01:33;;;;;;;10.43;7.45;;;;;;;7.66;62.00;101463.47;4912448;29;20058;-80
2023/03/18 04:04:01;;;;;;;10.00;7.40;;;;;;;7.68;61.54;101446.59;4934242;28;20058;-80
2023/03/18 04:06:29;;;;;;;10.35;7.72;;;;;;;7.84;61.46;101472.91;4946158;28;20051;-79
2023/03/18 04:08:59;;;;;;;10.80;7.25;;;;;;;7.87;61.73;101462.13;4917848;28;20054;-80
2023/03/18 04:11:32;;;;;;;9.45;7.82;;;;;;;7.75;61.40;101454.13;4939618;28;20456;-78
2023/03/18 04:13:58;;;;;;;12.05;8.98;;;;;;;7.72;61.42;101463.09;4942316;28;20388;-79
2023/03/18 04:16:28;;;;;;;10.90;7.88;;;;;;;7.26;61.67;101389.38;4941720;28;20089;-80
2023/03/18 04:18:58;;;;;;;10.52;7.75;;;;;;;7.56;61.25;101420.09;4942972;28;20046;-81
2023/03/18 04:21:27;;;;;;;12.27;7.82;;;;;;;7.82;60.87;101456.28;4938147;28;20058;-80
2023/03/18 04:24:03;;;;;;;10.73;7.35;;;;;;;7.76;61.33;101443.44;4955691;28;20046;-79
2023/03/18 04:26:42;;;;;;;10.43;7.55;;;;;;;7.46;60.86;101398.69;4943967;28;20046;-80
2023/03/18 04:29:10;;;;;;;15.43;7.97;;;;;;;7.74;60.82;101450.63;4944345;28;20452;-80
2023/03/18 04:31:37;;;;;;;14.80;8.15;;;;;;;7.27;60.83;101398.97;4954930;28;20050;-78
2023/03/18 04:34:09;;;;;;;10.02;7.72;;;;;;;7.45;61.12;101434.81;4926532;28;20219;-79
2023/03/18 04:36:38;;;;;;;19.48;8.05;;;;;;;7.38;61.35;101417.66;4959651;28;20081;-78
2023/03/18 04:39:11;;;;;;;10.57;7.90;;;;;;;7.59;61.50;101446.31;4938450;28;20050;-79
2023/03/18 04:41:38;;;;;;;14.57;8.50;;;;;;;7.65;61.49;101433.56;4951619;28;20533;-80
2023/03/18 04:44:05;;;;;;;14.43;7.53;;;;;;;7.80;61.88;101449.41;4932561;28;20276;-80
2023/03/18 04:46:38;;;;;;;9.70;7.80;;;;;;;7.75;61.47;101451.50;4931564;28;20156;-80
2023/03/18 04:49:05;;;;;;;10.55;8.00;;;;;;;7.73;61.92;101454.22;4942662;28;20054;-79
2023/03/18 04:51:57;;;;;;;17.83;8.35;;;;;;;7.54;61.55;101429.91;4933580;28;20093;-78
2023/03/18 04:54:27;;;;;;;13.43;7.53;;;;;;;7.67;61.82;101450.19;4897091;28;20050;-78
2023/03/18 04:56:56;;;;;;;12.95;8.48;;;;;;;7.74;61.88;101457.72;4913723;28;20085;-79
2023/03/18 04:59:31;;;;;;;13.07;8.85;;;;;;;7.67;62.14;101439.59;4927331;28;20054;-78
2023/03/18 05:02:04;;;;;;;16.80;8.80;;;;;;;7.71;61.87;101462.22;4931474;28;20050;-78
2023/03/18 05:04:31;;;;;;;14.52;8.55;;;;;;;7.38;62.28;101395.66;4955138;28;20595;-79
2023/03/18 05:07:04;;;;;;;20.23;8.80;;;;;;;7.73;62.30;101446.28;4929580;28;20141;-78
2023/03/18 05:09:48;;;;;;;16.92;8.13;;;;;;;7.32;62.07;101378.41;4938101;28;20050;-77
2023/03/18 05:12:15;;;;;;;13.55;8.52;;;;;;;7.16;62.37;101359.19;4935714;28;20046;-79
2023/03/18 05:14:42;;;;;;;23.38;9.20;;;;;;;7.65;62.37;101438.00;4960788;28;20133;-77
2023/03/18 05:17:14;;;;;;;13.00;8.55;;;;;;;7.47;63.08;101411.78;4962198;28;20222;-78
2023/03/18 05:19:45;;;;;;;16.00;8.25;;;;;;;7.58;62.23;101423.50;4951600;28;20058;-80
2023/03/18 05:22:16;;;;;;;;;;;;;;;7.68;62.65;101437.81;4942446;28;20046;-77
2023/03/18 05:24:45;;;;;;;22.27;7.80;;;;;;;7.64;62.62;101438.94;4960309;28;19921;-78
2023/03/18 05:27:14;;;;;;;9.35;7.63;;;;;;;7.22;62.01;101379.94;4929195;28;20327;-79
2023/03/18 05:29:50;;;;;;;12.05;7.72;;;;;;;7.02;62.19;101371.47;4934240;28;20488;-78
2023/03/18 05:32:40;;;;;;;14.52;8.80;;;;;;;7.28;62.63;101429.72;4934542;28;20310;-79
2023/03/18 05:35:12;;;;;;;16.70;8.32;;;;;;;7.14;62.31;101420.03;4909888;28;20351;-79
2023/03/18 05:37:42;;;;;;;11.32;7.38;;;;;;;7.25;62.46;101448.41;4917414;28;20537;-79
2023/03/18 05:40:16;;;;;;;25.65;14.23;;;;;;;7.24;62.95;101444.09;4928776;28;20289;-79
2023/03/18 05:42:45;;;;;;;17.85;11.73;;;;;;;7.30;63.23;101430.47;4948808;28;21107;-80
2023/03/18 05:45:22;;;;;;;13.90;9.00;;;;;;;7.45;63.49;101434.81;4930894;28;20321;-79
2023/03/18 05:48:02;;;;;;;15.90;8.77;;;;;;;7.64;63.47;101454.78;4946959;28;20088;-80
2023/03/18 05:50:48;;;;;;;17.67;9.65;;;;;;;7.82;63.12;101437.78;4921394;28;20104;-79
2023/03/18 05:53:25;;;;;;;24.35;10.68;;;;;;;7.87;62.40;101434.84;4902582;28;20616;-79
2023/03/18 05:56:13;;;;;;;22.02;10.52;;;;;;;7.62;62.67;101410.00;4934075;28;20554;-80
2023/03/18 05:58:43;;;;;;;15.68;9.32;;;;;;;7.42;62.13;101387.44;4912170;28;20353;-78
2023/03/18 06:01:19;;;;;;;18.08;9.48;;;;;;;7.66;62.47;101424.69;4934171;28;20477;-79
2023/03/18 06:03:52;;;;;;;34.15;13.75;;;;;;;7.83;62.93;101450.03;4923932;28;20736;-80
2023/03/18 06:06:22;;;;;;;21.88;10.27;;;;;;;7.68;63.08;101419.31;4939332;28;20086;-78
2023/03/18 06:08:49;;;;;;;15.38;10.25;;;;;;;7.66;63.20;101410.63;4947128;28;20523;-79
2023/03/18 06:11:27;;;;;;;18.20;10.50;;;;;;;7.96;62.57;101443.97;4946451;28;20117;-79
2023/03/18 06:13:54;;;;;;;18.60;11.30;;;;;;;7.70;62.56;101396.28;4940847;28;20654;-80
2023/03/18 06:16:22;;;;;;;16.48;9.95;;;;;;;8.08;62.37;101448.47;4932103;28;20085;-78
2023/03/18 06:18:49;;;;;;;13.65;9.07;;;;;;;8.03;62.17;101430.25;4939281;28;20081;-78
2023/03/18 06:21:18;;;;;;;15.52;10.00;;;;;;;7.88;62.25;101416.22;4944609;28;20050;-80
2023/03/18 06:23:52;;;;;;;17.30;10.48;;;;;;;8.01;61.99;101440.09;4940862;28;20093;-80
2023/03/18 06:26:23;;;;;;;17.67;9.90;;;;;;;7.61;61.64;101386.28;4951262;28;20076;-79
2023/03/18 06:28:57;;;;;;;17.52;10.23;;;;;;;7.91;62.31;101445.13;4926391;28;20714;-78
2023/03/18 06:31:24;;;;;;;19.25;9.80;;;;;;;7.95;62.08;101444.94;4945619;28;20938;-78
2023/03/18 06:34:03;;;;;;;14.15;10.45;;;;;;;6.45;62.07;101207.03;4939230;28;20057;-80
2023/03/18 06:36:33;;;;;;;14.45;9.30;;;;;;;7.99;62.62;101460.50;4948724;28;20130;-77
2023/03/18 06:39:07;;;;;;;16.42;10.13;;;;;;;7.84;62.51;101425.31;4939926;28;20295;-77
2023/03/18 06:41:34;;;;;;;19.17;9.95;;;;;;;8.25;62.47;101472.03;4926141;28;20690;-79
2023/03/18 06:44:08;;;;;;;16.63;9.95;;;;;;;8.37;61.91;101480.09;4948237;28;20125;-81
2023/03/18 06:46:43;;;;;;;20.23;11.00;;;;;;;8.00;61.61;101392.59;4918803;28;20355;-82
2023/03/18 06:49:17;;;;;;;19.08;10.55;;;;;;;8.05;61.03;101390.50;4908055;28;20364;-80
2023/03/18 06:51:49;;;;;;;16.35;9.85;;;;;;;8.58;60.74;101462.84;4957907;28;20050;-80
2023/03/18 06:54:24;;;;;;;16.15;10.32;;;;;;;8.53;59.88;101433.19;4917261;28;20321;-79
2023/03/18 06:56:52;;;;;;;17.65;9.90;;;;;;;8.76;60.00;101453.66;4931668;28;20740;-80
2023/03/18 06:59:22;;;;;;;13.10;10.13;;;;;;;8.99;59.73;101477.72;4913579;28;20046;-79
2023/03/18 07:01:58;;;;;;;21.10;10.65;;;;;;;8.99;59.43;101461.84;4891994;28;20310;-78
2023/03/18 07:04:36;;;;;;;14.80;9.10;;;;;;;9.11;58.36;101474.25;4904786;28;20404;-79
2023/03/18 07:07:04;;;;;;;16.92;10.65;;;;;;;8.94;58.30;101426.88;4876723;28;20082;-78
2023/03/18 07:09:32;;;;;;;19.23;10.73;;;;;;;9.33;57.88;101470.94;4920886;28;20258;-79
2023/03/18 07:11:59;;;;;;;16.13;10.68;;;;;;;9.12;57.72;101415.00;4895032;28;20295;-78
2023/03/18 07:14:27;;;;;;;20.33;10.52;;;;;;;9.52;57.71;101470.50;4906356;28;20047;-79
2023/03/18 07:16:57;;;;;;;17.30;10.27;;;;;;;9.41;57.99;101436.78;4918663;28;20827;-79
2023/03/18 07:19:35;;;;;;;19.88;11.50;;;;;;;9.62;57.33;101460.09;4894589;28;20283;-81
2023/03/18 07:22:10;;;;;;;15.65;12.48;;;;;;;9.83;55.29;101463.88;4880422;28;20373;-80
2023/03/18 07:24:39;;;;;;;18.30;12.80;;;;;;;9.92;55.46;101472.94;4908272;28;20051;-80
2023/03/18 07:27:14;;;;;;;18.88;12.93;;;;;;;9.89;55.07;101462.56;4895487;28;20046;-78
2023/03/18 07:29:40;;;;;;;22.38;13.55;;;;;;;9.67;55.39;101398.78;4888629;28;20130;-77
2023/03/18 07:32:12;;;;;;;18.52;13.38;;;;;;;10.17;55.12;101465.84;4899645;28;20047;-79
2023/03/18 07:34:52;;;;;;;19.98;14.02;;;;;;;10.31;53.95;101478.16;4919342;28;20442;-79
2023/03/18 07:37:26;;;;;;;20.73;14.50;;;;;;;10.12;54.54;101425.53;4890005;28;20275;-78
2023/03/18 07:39:52;;;;;;;21.98;14.63;;;;;;;10.55;53.82;101486.94;4921843;28;20480;-79
2023/03/18 07:42:20;;;;;;;21.38;15.32;;;;;;;10.67;51.95;101487.84;4924606;28;20637;-79
2023/03/18 07:44:49;;;;;;;20.42;14.95;;;;;;;10.64;51.26;101480.09;4899842;28;20433;-79
2023/03/18 07:47:35;;;;;;;26.20;15.07;;;;;;;10.64;50.90;101490.72;4914357;28;20278;-80
2023/03/18 07:50:09;;;;;;;18.77;13.70;;;;;;;10.47;51.26;101468.09;4924845;28;20195;-81
2023/03/18 07:52:42;;;;;;;19.13;13.85;;;;;;;10.40;51.75;101462.38;4925772;28;20133;-79
2023/03/18 07:55:14;;;;;;;25.27;14.43;;;;;;;10.56;51.18;101477.16;4883556;28;20134;-81
2023/03/18 07:57:50;;;;;;;24.13;13.88;;;;;;;10.69;51.17;101497.38;4913410;28;20372;-81
2023/03/18 08:00:22;;;;;;;17.45;11.70;;;;;;;10.56;52.34;101496.63;4912581;28;20480;-81
2023/03/18 08:02:49;;;;;;;19.42;14.18;;;;;;;10.50;52.32;101488.25;4936467;28;20550;-79
2023/03/18 08:05:23;;;;;;;29.63;14.75;;;;;;;10.71;52.01;101507.88;4904856;28;20077;-80
2023/03/18 08:07:57;;;;;;;21.33;13.27;;;;;;;10.71;52.97;101501.75;4902098;28;20123;-80
2023/03/18 08:10:30;;;;;;;26.52;16.20;;;;;;;10.86;52.67;101506.72;4927799;28;20051;-80
2023/03/18 08:13:02;;;;;;;26.35;15.55;;;;;;;10.83;52.84;101472.44;4908301;28;20432;-78
2023/03/18 08:15:35;;;;;;;25.50;16.35;;;;;;;11.02;51.91;101505.56;4938633;28;20299;-77
2023/03/18 08:18:07;;;;;;;25.05;16.20;;;;;;;11.11;51.37;101520.78;4895503;28;20389;-79
2023/03/18 08:20:37;;;;;;;14.98;11.57;;;;;;;11.12;53.21;101490.63;4923708;28;20054;-79
2023/03/18 08:23:04;;;;;;;24.88;16.08;;;;;;;11.12;52.02;101507.41;4915058;28;20447;-79
2023/03/18 08:25:31;;;;;;;24.48;15.05;;;;;;;11.28;53.08;101512.38;4948415;28;20621;-79
2023/03/18 08:28:06;;;;;;;18.73;14.23;;;;;;;11.48;53.18;101525.91;4920127;28;20045;-78
2023/03/18 08:30:34;;;;;;;27.02;16.98;;;;;;;11.45;50.99;101523.50;4921264;28;20130;-80
2023/03/18 08:33:02;;;;;;;23.90;14.98;;;;;;;11.40;51.35;101520.38;4912744;28;20676;-80
2023/03/18 08:35:29;;;;;;;24.02;16.55;;;;;;;11.30;51.52;101504.28;4929310;28;20451;-80
2023/03/18 08:38:00;;;;;;;25.77;16.00;;;;;;;11.29;50.69;101508.75;4928260;28;20047;-78
2023/03/18 08:40:27;;;;;;;27.08;16.63;;;;;;;11.30;49.93;101512.25;4893610;28;20054;-78
2023/03/18 08:42:54;;;;;;;25.27;16.98;;;;;;;11.37;49.75;101529.44;4918224;28;20512;-79
2023/03/18 08:45:21;;;;;;;25.13;16.95;;;;;;;11.24;50.46;101529.53;4948371;28;20195;-78
2023/03/18 08:47:55;;;;;;;24.08;15.85;;;;;;;11.31;50.42;101528.09;4929375;28;20500;-78
2023/03/18 08:50:28;;;;;;;26.02;15.90;;;;;;;10.91;50.96;101483.31;4958520;28;20053;-78
2023/03/18 08:53:02;;;;;;;29.25;17.15;;;;;;;11.07;51.24;101503.41;4941748;28;20705;-76
2023/03/18 08:55:36;;;;;;;22.75;14.73;;;;;;;11.30;51.15;101521.06;4943936;28;20051;-79
2023/03/18 08:58:09;;;;;;;21.88;14.80;;;;;;;11.25;51.42;101517.94;4900104;28;20891;-79
2023/03/18 09:00:41;;;;;;;25.52;17.55;;;;;;;11.38;50.82;101527.59;4915773;28;20554;-77
2023/03/18 09:03:15;;;;;;;27.98;16.17;;;;;;;11.48;50.36;101520.59;4933764;28;20264;-76
2023/03/18 09:05:54;;;;;;;25.50;16.07;;;;;;;11.73;49.49;101528.34;4950412;28;20074;-78
2023/03/18 09:08:29;;;;;;;22.48;14.52;;;;;;;11.31;49.06;101464.31;4939383;28;20050;-80
2023/03/18 09:10:59;;;;;;;22.45;14.35;;;;;;;11.79;48.24;101526.19;4947534;28;20563;-77
2023/03/18 09:13:31;;;;;;;20.88;14.02;;;;;;;11.48;48.49;101475.41;4918113;28;20374;-78
2023/03/18 09:16:04;;;;;;;20.83;15.85;;;;;;;11.80;48.42;101528.72;4920707;28;20520;-75
2023/03/18 09:18:34;;;;;;;21.17;15.55;;;;;;;11.71;48.10;101501.03;4901506;28;20093;-79
2023/03/18 09:21:05;;;;;;;24.13;16.40;;;;;;;11.86;48.29;101522.06;4937414;28;20468;-77
2023/03/18 09:23:38;;;;;;;23.35;15.50;;;;;;;11.45;48.34;101449.06;4918729;28;20142;-79
2023/03/18 09:26:05;;;;;;;21.98;15.13;;;;;;;11.97;47.53;101524.75;4935918;28;20421;-79
2023/03/18 09:28:36;;;;;;;20.60;14.40;;;;;;;12.02;47.64;101525.22;4916012;28;20437;-79
2023/03/18 09:31:14;;;;;;;21.88;14.40;;;;;;;11.44;47.50;101388.88;4938685;28;20046;-78
2023/03/18 09:33:47;;;;;;;23.55;13.50;;;;;;;12.24;48.52;101510.19;4930807;28;20227;-78
2023/03/18 09:36:14;;;;;;;21.10;14.30;;;;;;;12.47;48.51;101514.44;4931572;28;20145;-79
2023/03/18 09:38:41;;;;;;;22.85;13.93;;;;;;;12.62;46.91;101517.66;4926676;28;20500;-79
2023/03/18 09:41:49;;;;;;;19.55;13.77;;;;;;;12.73;46.29;101527.44;4914521;28;20603;-79
2023/03/18 09:44:34;;;;;;;19.05;13.35;;;;;;;12.96;46.05;101526.38;4910029;28;20339;-78
2023/03/18 09:47:10;;;;;;;19.95;13.07;;;;;;;13.05;45.46;101532.72;4957456;28;20042;-77
2023/03/18 09:49:58;;;;;;;33.08;12.57;;;;;;;13.43;47.71;101523.31;4943650;28;20065;-79
2023/03/18 09:52:30;;;;;;;17.67;13.43;;;;;;;13.51;45.99;101530.63;4957731;28;20081;-80
2023/03/18 09:55:21;;;;;;;22.90;14.60;;;;;;;13.58;46.18;101521.13;4934937;28;20173;-80
2023/03/18 09:57:57;;;;;;;22.70;14.13;;;;;;;13.66;45.83;101507.94;4907459;28;20046;-79
2023/03/18 10:00:43;;;;;;;21.67;11.20;;;;;;;13.83;46.05;101519.81;4895897;28;20414;-79
2023/03/18 10:03:34;;;;;;;23.00;13.00;;;;;;;13.82;44.83;101510.13;4940370;28;20305;-79
2023/03/18 10:06:15;;;;;;;18.23;11.38;;;;;;;14.06;45.09;101497.28;4931616;28;20429;-77
2023/03/18 10:09:07;;;;;;;22.10;13.13;;;;;;;14.19;43.19;101531.72;4923438;28;20226;-78
2023/03/18 10:11:45;;;;;;;21.47;11.77;;;;;;;14.17;43.39;101511.47;4924368;28;20054;-78
2023/03/18 10:15:00;;;;;;;26.67;14.55;;;;;;;13.97;44.29;101475.91;4906904;28;20050;-79
2023/03/18 10:17:45;;;;;;;18.27;13.27;;;;;;;13.99;43.28;101457.91;4962615;28;20050;-79
2023/03/18 10:20:50;;;;;;;17.88;12.88;;;;;;;14.26;42.12;101455.41;4916221;28;20295;-79
2023/03/18 10:23:45;;;;;;;17.20;13.02;;;;;;;14.41;43.18;101513.75;4930828;28;20442;-79
2023/03/18 10:26:29;;;;;;;15.73;10.95;;;;;;;14.38;43.87;101431.25;4916933;28;20245;-79
2023/03/18 10:29:02;;;;;;;18.10;10.60;;;;;;;15.22;45.06;101505.41;4949131;28;20047;-78
2023/03/18 10:32:09;;;;;;;17.25;10.52;;;;;;;14.77;43.04;101476.66;4920965;28;20400;-79
2023/03/18 10:34:44;;;;;;;18.80;12.52;;;;;;;14.81;43.56;101494.13;4919443;28;20314;-77
2023/03/18 10:37:54;;;;;;;20.25;12.55;;;;;;;14.98;43.95;101498.75;4908965;28;20045;-78
2023/03/18 10:40:40;;;;;;;17.33;10.77;;;;;;;14.95;43.44;101448.19;4915241;28;20054;-78
2023/03/18 10:43:31;;;;;;;22.85;13.70;;;;;;;14.85;42.73;101464.25;4919488;28;20761;-79
2023/03/18 10:46:03;;;;;;;19.27;14.18;;;;;;;15.18;42.97;101494.19;4921331;28;20390;-77
2023/03/18 10:48:52;;;;;;;20.58;12.55;;;;;;;15.50;42.42;101488.44;4894050;28;20382;-76
2023/03/18 10:51:45;;;;;;;22.92;12.02;;;;;;;15.77;43.28;101481.44;4931628;28;20050;-77
2023/03/18 10:54:18;;;;;;;37.85;15.80;;;;;;;15.67;42.40;101496.69;4935736;28;20047;-78
2023/03/18 10:56:52;;;;;;;96.65;17.20;;;;;;;16.00;43.82;101482.72;4936322;28;20069;-77
2023/03/18 10:59:25;;;;;;;113.05;19.73;;;;;;;15.88;43.58;101486.59;4936418;28;20054;-78
2023/03/18 11:02:12;;;;;;;20.63;13.20;;;;;;;15.41;39.14;101483.97;4911009;28;20406;-79
2023/03/18 11:04:56;;;;;;;17.52;11.93;;;;;;;15.48;39.16;101474.34;4950183;28;20129;-80
2023/03/18 11:07:54;;;;;;;33.05;12.98;;;;;;;15.62;38.74;101469.53;4940427;28;20066;-80
2023/03/18 11:10:44;;;;;;;32.67;11.50;;;;;;;15.49;40.39;101392.28;4937770;28;20143;-78
2023/03/18 11:13:27;;;;;;;19.35;12.13;;;;;;;15.93;38.60;101476.28;4921854;28;20165;-79
2023/03/18 11:15:58;;;;;;;20.67;11.82;;;;;;;15.78;39.47;101416.22;4931175;28;20062;-78
2023/03/18 11:18:33;;;;;;;18.65;11.85;;;;;;;16.25;37.93;101466.91;4945689;28;20050;-78
2023/03/18 11:21:11;;;;;;;17.17;11.02;;;;;;;16.39;38.43;101462.88;4910256;28;20050;-80
2023/03/18 11:24:23;;;;;;;18.08;10.20;;;;;;;16.52;39.77;101457.09;4915701;28;20042;-77
2023/03/18 11:26:53;;;;;;;18.70;10.27;;;;;;;16.31;38.23;101407.38;4947838;28;20068;-78
2023/03/18 11:29:31;;;;;;;26.55;10.43;;;;;;;16.71;36.84;101469.50;4937509;28;20245;-78
2023/03/18 11:32:04;;;;;;;24.02;10.65;;;;;;;17.11;39.28;101468.13;4935739;28;20303;-78
2023/03/18 11:35:17;;;;;;;22.75;11.07;;;;;;;16.78;38.72;101462.50;4924106;28;20623;-78
2023/03/18 11:37:47;;;;;;;27.95;11.40;;;;;;;16.99;39.94;101467.53;4944244;28;20104;-78
2023/03/18 11:40:17;;;;;;;23.75;10.63;;;;;;;16.44;41.36;101406.97;4966238;28;20814;-80
2023/03/18 11:42:53;;;;;;;21.05;10.95;;;;;;;16.66;41.50;101448.50;4944076;28;20050;-79
2023/03/18 11:45:25;;;;;;;17.50;9.48;;;;;;;16.58;40.57;101454.66;4967283;28;20489;-78
2023/03/18 11:47:57;;;;;;;18.85;10.10;;;;;;;16.08;40.41;101392.75;4942632;28;20251;-78
2023/03/18 11:50:36;;;;;;;13.77;8.88;;;;;;;16.41;40.87;101444.81;4945101;28;20054;-79
2023/03/18 11:53:12;;;;;;;22.15;9.88;;;;;;;16.46;41.07;101453.22;4968963;28;20054;-80
2023/03/18 11:56:02;;;;;;;25.08;9.93;;;;;;;16.67;41.68;101451.06;4964356;28;20256;-80